Copalis Crossing, WA (98536)

12:45 PM PST on February 12, 2016 (GMT -0800)
KWACOPAL3 | | Change Station
CLOSE
Current Station
Personal Weather Station
Location: Copalis Beach, WA
Elevation: 15 ft
Nearby Weather Stations

Elev 15 ft 47.11 °N, 124.18 °W | Updated 9 minutes ago

Mostly Cloudy
Mostly Cloudy
54.7 °F
Feels Like 54.7 °F
N
3.0
Wind Variable Wind from SSW
Gusts 7.0 mph

Today
High -- | Low -- °F
--% Chance of Precip.
Yesterday
High -- | Low -- °F
Precip. -- in
Pressure 30.14 in
Visibility 6.0 miles
Clouds Few 1500 ft
Scattered Clouds 2300 ft
Dew Point 52 °F
Humidity 89%
Rainfall 0.30 in
Snow Depth Not available.
7:26 AM 5:35 PM
Waxing Crescent, 23% visible
SPECI KHQM 122039Z AUTO 20012KT 6SM BR FEW015 SCT023 12/10 A3014 RMK AO2 T01170100
Pressure 30.14 in
Visibility 6.0 miles
Clouds Few 1500 ft
Scattered Clouds 2300 ft
Dew Point 52 °F
Humidity 89%
Rainfall 0.30 in
Snow Depth Not available.
7:26 AM 5:35 PM
Waxing Crescent, 23% visible
SPECI KHQM 122039Z AUTO 20012KT 6SM BR FEW015 SCT023 12/10 A3014 RMK AO2 T01170100

10-Day Weather Forecast

Almanac

Astronomy

Feb. 12, 2016 Rise Set
Actual Time
Civil Twilight
Nautical Twilight
Astronomical Twilight
Moon
Length of Visible Light
Length of Day
Tomorrow will be .
, % of the Moon is Illuminated

Today's Extremes

State Highs State Lows

Community

WunderPhotos

Upload Photos

1,892,389 photos uploaded!

WunderBlog® & News

Nearby

Air Quality

  Air Quality AQ Index Pollutant
Not available.

Snow Depth

Station Depth Elevation

Earthquake Activity

City Distance Mag. Time & Date
Minimum magnitude displayed is 2.5.

Coastal Water Temperatures

Place Temperature

Stations

Nearby Weather Stations

Station Location Temp. Windchill Dew Point Humidity Wind Precip. Elev Updated Type
                   

Watches & Warnings

There are currently no watches in effect.